Accueil
METAR-TAF:

METAR-TAF

Aéroports :

Aéroport international de N'Djaména

Ndjamena, Tchad

latitude: 12-08N, longitude: 015-02E, altitude: 295 m

Observation

Le bulletin a été fait il y a 29 minutes, à 16:00 UTC
Vent 5 kt de nord
Température 35°C
Humidité 13%
Pression 1007 hPa
Visibilité: 6000 m

METAR: FTTJ 211600Z 36005KT 6000 NSC 35/02 Q1007 NOSIG

Heure: 17:29 (16:29 UTC)

Prévision

Le bulletin a été fait il y a 5 heures et 29 minutes, à 11:00 UTC
Prévision valable du 21 à 12 UTC au 22 à 18 UTC
Vent 10 kt de nord/nord-est
Visibilité 10 km ou plus
pas de nuages en-dessous de 1500 mètres et pas de cumulonimbus.
Temporairement
du 21 à 16 UTC au 21 à 19 UTC
Vent 2 kt de direction variable
Visibilité: 4000 m
brume sèche
Temporairement
du 22 à 04 UTC au 22 à 07 UTC
Visibilité: 4000 m
brume sèche

TAF: FTTJ 211100Z 2112/2218 03010KT CAVOK TEMPO 2116/2119 VRB02KT 4000 HZ TEMPO 2204/2207 4000 HZ

Observations et prévisions météorologiques de plus de 4000 aéroports (messages METAR et TAF).

Les stations disponibles sont représentées par des disques jaunes et rouges sur la carte.

Passer la souris dessus pour voir le nom de la station.

Cliquer dessus pour voir les observations et prévisions météorologiques.

Pour changer de carte: cliquez sur les boutons verts avec une croix noire pour zoomer, sur le bouton vert avec un tiret pour effectuer un zoom arrière, ou sur les flèches vertes pour les cartes adjacentes.


METAR-TAF: